createdAt,value
2023-01-13T00:01:27.156Z,5.56
2023-01-13T00:03:55.265Z,5.56
2023-01-13T00:06:27.926Z,5.57
2023-01-13T00:08:55.687Z,5.59
2023-01-13T00:11:24.620Z,5.60
2023-01-13T00:13:52.386Z,5.61
2023-01-13T00:16:21.177Z,5.63
2023-01-13T00:18:51.326Z,5.63
2023-01-13T00:21:24.581Z,5.64
2023-01-13T00:23:54.191Z,5.63
2023-01-13T00:26:25.014Z,5.64
2023-01-13T00:29:00.158Z,5.67
2023-01-13T00:31:29.540Z,5.66
2023-01-13T00:33:59.355Z,5.64
2023-01-13T00:36:28.053Z,5.64
2023-01-13T00:38:56.117Z,5.64
2023-01-13T00:41:25.399Z,5.63
2023-01-13T00:43:53.369Z,5.64
2023-01-13T00:46:23.056Z,5.62
2023-01-13T00:48:51.874Z,5.63
2023-01-13T00:51:21.588Z,5.63
2023-01-13T00:53:51.632Z,5.63
2023-01-13T00:56:34.165Z,5.63
2023-01-13T00:59:06.388Z,5.61
2023-01-13T07:01:33.686Z,5.55
2023-01-13T07:04:02.717Z,5.61
2023-01-13T07:06:30.665Z,5.60
2023-01-13T07:08:58.306Z,5.58
2023-01-13T07:11:26.159Z,5.58
2023-01-13T07:14:12.396Z,5.58
2023-01-13T07:16:40.407Z,5.56
2023-01-13T07:19:08.278Z,5.57
2023-01-13T07:21:36.199Z,5.57
2023-01-13T07:24:04.129Z,5.58
2023-01-13T07:26:31.899Z,5.59
2023-01-13T07:29:01.152Z,5.58
2023-01-13T07:31:29.221Z,5.60
2023-01-13T07:33:57.060Z,5.60
2023-01-13T07:36:24.766Z,5.60
2023-01-13T07:38:54.737Z,5.61
2023-01-13T07:41:41.926Z,5.64
2023-01-13T07:44:11.052Z,5.65
2023-01-13T07:46:39.519Z,5.64
2023-01-13T07:49:08.405Z,5.65
2023-01-13T07:51:38.508Z,5.68
2023-01-13T07:54:06.448Z,5.68
2023-01-13T07:56:34.369Z,5.72
2023-01-13T07:59:02.440Z,5.73
2023-01-13T08:01:31.976Z,5.77
2023-01-13T08:04:00.009Z,5.80
2023-01-13T08:06:28.074Z,5.83
2023-01-13T08:08:55.768Z,5.88
2023-01-13T08:11:23.846Z,5.90
2023-01-13T08:13:56.537Z,5.93
2023-01-13T08:16:24.811Z,5.96
2023-01-13T08:18:52.592Z,6.00
2023-01-13T08:21:20.347Z,6.02
2023-01-13T08:23:48.154Z,6.07
2023-01-13T08:26:18.159Z,6.09
2023-01-13T08:28:46.344Z,6.15
2023-01-13T08:31:16.663Z,6.17
2023-01-13T08:33:44.686Z,6.22
2023-01-13T08:36:13.937Z,6.23
2023-01-13T08:38:42.346Z,6.26
2023-01-13T08:41:13.373Z,6.27
2023-01-13T08:43:41.788Z,6.28
2023-01-13T08:46:09.892Z,6.31
2023-01-13T08:48:38.003Z,6.32
2023-01-13T08:51:08.889Z,6.32
2023-01-13T08:53:36.943Z,6.32
2023-01-13T08:56:12.009Z,6.31
2023-01-13T08:58:40.815Z,6.34
2023-01-13T09:01:10.126Z,6.35
2023-01-13T09:03:39.178Z,6.36
2023-01-13T09:06:06.955Z,6.36
2023-01-13T09:08:34.672Z,6.37
2023-01-13T09:11:22.338Z,6.40
2023-01-13T09:13:50.636Z,6.39
2023-01-13T09:16:18.631Z,6.41
2023-01-13T09:18:46.477Z,6.45
2023-01-13T09:21:14.796Z,6.48
2023-01-13T09:23:42.425Z,6.52
2023-01-13T09:26:10.991Z,6.53
2023-01-13T09:28:38.625Z,6.55
2023-01-13T09:31:06.468Z,6.57
2023-01-13T09:33:52.801Z,6.59
2023-01-13T09:36:20.953Z,6.61
2023-01-13T09:38:51.566Z,6.63
2023-01-13T09:41:44.748Z,6.65
2023-01-13T09:44:20.212Z,6.70
2023-01-13T09:46:52.677Z,6.74
2023-01-13T09:49:25.580Z,6.76
2023-01-13T09:52:16.502Z,6.79
2023-01-13T09:54:45.445Z,6.82
2023-01-13T09:57:16.029Z,6.85
2023-01-13T09:59:44.678Z,6.88
2023-01-13T10:02:40.500Z,6.90
2023-01-13T10:05:22.691Z,6.94
2023-01-13T10:07:54.425Z,6.96
2023-01-13T10:10:35.424Z,7.00
2023-01-13T10:13:14.484Z,7.05
2023-01-13T10:15:54.722Z,7.08
2023-01-13T10:18:42.584Z,7.11
2023-01-13T10:21:19.594Z,7.16
2023-01-13T10:24:16.242Z,7.20
2023-01-13T10:26:59.172Z,7.27
2023-01-13T10:29:29.133Z,7.33
2023-01-13T10:31:59.024Z,7.39
2023-01-13T10:34:27.998Z,7.43
2023-01-13T10:37:08.414Z,7.49
2023-01-13T10:39:46.625Z,7.55
2023-01-13T10:42:22.963Z,7.58
2023-01-13T10:44:55.412Z,7.62
2023-01-13T10:47:29.005Z,7.66
2023-01-13T10:50:09.675Z,7.70
2023-01-13T10:52:43.086Z,7.75
2023-01-13T10:55:36.763Z,7.79
2023-01-13T10:58:18.748Z,7.80
2023-01-13T11:00:49.364Z,7.82
2023-01-13T11:03:20.843Z,7.82
2023-01-13T11:05:51.443Z,7.83
2023-01-13T11:08:24.009Z,7.86
2023-01-13T11:10:57.791Z,7.94
2023-01-13T11:13:35.917Z,7.98
2023-01-13T11:16:18.209Z,8.01
2023-01-13T11:19:12.186Z,8.00
2023-01-13T11:21:57.084Z,8.01
2023-01-13T11:24:51.339Z,8.00
2023-01-13T11:27:43.719Z,8.00
2023-01-13T11:30:30.487Z,8.01
2023-01-13T11:33:10.631Z,8.03
2023-01-13T11:35:45.287Z,8.03
2023-01-13T11:38:35.784Z,8.01
2023-01-13T11:41:23.719Z,8.02
2023-01-13T11:44:04.687Z,8.02
2023-01-13T11:46:32.945Z,8.00
2023-01-13T11:49:01.427Z,8.02
2023-01-13T11:51:49.043Z,8.03
2023-01-13T11:54:41.553Z,7.97
2023-01-13T11:57:32.940Z,7.99
2023-01-13T12:00:12.677Z,8.00
2023-01-13T12:03:18.246Z,8.04
2023-01-13T12:05:59.927Z,8.06
2023-01-13T12:08:49.691Z,8.08
2023-01-13T12:11:29.784Z,8.11
2023-01-13T12:14:12.995Z,8.15
2023-01-13T12:16:49.636Z,8.16
2023-01-13T12:19:31.332Z,8.18
2023-01-13T12:22:29.593Z,8.24
2023-01-13T12:25:17.775Z,8.28
2023-01-13T12:27:51.659Z,8.35
2023-01-13T12:30:40.811Z,8.41
2023-01-13T12:33:21.293Z,8.38
2023-01-13T12:36:20.614Z,8.38
2023-01-13T12:38:53.165Z,8.36
2023-01-13T12:42:18.864Z,8.37
2023-01-13T12:45:20.645Z,8.37
2023-01-13T12:47:48.914Z,8.35
2023-01-13T12:50:22.329Z,8.35
2023-01-13T12:52:52.337Z,8.31
2023-01-13T12:55:24.505Z,8.30
2023-01-13T12:58:06.975Z,8.31
2023-01-13T13:00:40.314Z,8.29
2023-01-13T13:03:10.944Z,8.29
2023-01-13T13:05:46.186Z,8.29
2023-01-13T13:08:22.239Z,8.30
2023-01-13T13:11:34.427Z,8.28
2023-01-13T13:14:04.940Z,8.25
2023-01-13T13:16:36.291Z,8.28
2023-01-13T13:19:20.155Z,8.27
2023-01-13T13:22:06.824Z,8.26
2023-01-13T13:24:34.516Z,8.24
2023-01-13T13:27:33.607Z,8.21
2023-01-13T13:30:04.171Z,8.22
2023-01-13T13:32:56.481Z,8.22
2023-01-13T13:35:53.571Z,8.21
2023-01-13T13:39:05.017Z,8.19
2023-01-13T13:41:54.759Z,8.18
2023-01-13T13:44:49.351Z,8.18
2023-01-13T13:47:17.382Z,8.17
2023-01-13T13:49:53.713Z,8.14
2023-01-13T13:52:38.070Z,8.11
2023-01-13T13:55:14.637Z,8.09
2023-01-13T13:57:47.115Z,8.09
2023-01-13T14:00:15.404Z,8.10
2023-01-13T14:02:53.305Z,8.08
2023-01-13T14:05:25.249Z,8.05
2023-01-13T14:08:00.202Z,8.02
2023-01-13T14:10:32.654Z,8.00
2023-01-13T14:13:13.087Z,7.99
2023-01-13T14:15:41.479Z,7.96
2023-01-13T14:18:20.476Z,7.94
2023-01-13T14:20:58.687Z,7.91
2023-01-13T14:23:29.613Z,7.88
2023-01-13T14:26:04.244Z,7.87
2023-01-13T14:28:36.633Z,7.90
2023-01-13T14:31:07.152Z,7.82
2023-01-13T14:33:46.979Z,7.81
2023-01-13T14:36:19.577Z,7.82
2023-01-13T14:39:05.948Z,7.82
2023-01-13T14:41:37.213Z,7.82
2023-01-13T14:44:27.066Z,7.79
2023-01-13T14:46:57.656Z,7.74
2023-01-13T14:49:41.481Z,7.76
2023-01-13T14:52:25.103Z,7.78
2023-01-13T14:55:18.679Z,7.75
2023-01-13T14:57:47.118Z,7.76
2023-01-13T15:00:14.843Z,7.76
2023-01-13T15:02:47.039Z,7.76
2023-01-13T15:05:18.914Z,7.78
2023-01-13T15:08:02.863Z,7.77
2023-01-13T15:10:31.961Z,7.79
2023-01-13T15:13:02.768Z,7.75
2023-01-13T15:15:36.424Z,7.77
2023-01-13T15:18:13.874Z,7.79
2023-01-13T15:20:42.328Z,7.80
2023-01-13T15:23:11.558Z,7.80
2023-01-13T15:25:41.737Z,7.81
2023-01-13T15:28:27.973Z,7.82
2023-01-13T15:31:00.824Z,7.83
2023-01-13T15:33:28.766Z,7.84
2023-01-13T15:35:56.639Z,7.84
2023-01-13T15:38:24.964Z,7.85
2023-01-13T15:40:52.901Z,7.85
2023-01-13T15:43:42.064Z,7.85
2023-01-13T15:46:35.085Z,7.84
2023-01-13T15:49:17.654Z,7.85
2023-01-13T15:51:45.542Z,7.84
2023-01-13T15:54:13.335Z,7.85
2023-01-13T15:56:42.269Z,7.85
2023-01-13T15:59:17.445Z,7.86
2023-01-13T16:01:46.715Z,7.87
2023-01-13T16:04:14.455Z,7.87
2023-01-13T16:06:42.753Z,7.90
2023-01-13T16:09:13.767Z,7.90
2023-01-13T16:11:41.551Z,7.90
2023-01-13T16:14:09.421Z,7.90
2023-01-13T16:16:37.840Z,7.89
2023-01-13T16:19:05.580Z,7.88
2023-01-13T16:21:33.336Z,7.90
2023-01-13T16:24:01.103Z,7.89
2023-01-13T16:26:30.300Z,7.89
2023-01-13T16:28:58.466Z,7.90
2023-01-13T16:31:32.346Z,7.89
2023-01-13T16:34:02.248Z,7.92
2023-01-13T16:36:33.454Z,7.92
2023-01-13T16:39:01.922Z,7.93
2023-01-13T16:41:29.710Z,7.94
2023-01-13T16:43:57.986Z,7.95
2023-01-13T16:46:28.398Z,7.95
2023-01-13T16:49:01.623Z,7.96
2023-01-13T16:51:29.389Z,7.96
2023-01-13T16:53:57.105Z,7.99
2023-01-13T16:56:30.475Z,7.98
2023-01-13T16:59:09.504Z,7.98
2023-01-13T17:01:39.644Z,7.99
2023-01-13T17:04:14.428Z,7.98
2023-01-13T17:06:44.395Z,7.99
2023-01-13T17:09:17.808Z,7.99
2023-01-13T17:11:45.514Z,7.99
2023-01-13T17:14:19.364Z,7.99
2023-01-13T17:16:47.753Z,8.00
2023-01-13T17:19:15.976Z,8.00
2023-01-13T17:21:43.880Z,8.01
2023-01-13T17:24:12.599Z,8.02
2023-01-13T17:26:44.144Z,8.02
2023-01-13T17:29:23.079Z,8.03
2023-01-13T17:31:51.595Z,8.04
2023-01-13T17:34:21.070Z,8.04
2023-01-13T17:36:48.824Z,8.04
2023-01-13T17:39:19.360Z,8.03
2023-01-13T17:41:47.507Z,8.02
2023-01-13T17:44:20.117Z,8.01
2023-01-13T17:46:48.921Z,8.00
2023-01-13T17:49:19.212Z,7.96
2023-01-13T17:51:48.366Z,7.96
2023-01-13T17:54:16.448Z,7.95
2023-01-13T17:56:44.445Z,7.96
2023-01-13T17:59:14.448Z,7.91
2023-01-13T18:01:42.760Z,7.90
2023-01-13T18:04:16.529Z,7.90
2023-01-13T18:06:44.731Z,7.87
2023-01-13T18:09:12.831Z,7.84
2023-01-13T18:11:40.952Z,7.82
2023-01-13T18:14:10.253Z,7.81
2023-01-13T18:16:38.848Z,7.80
2023-01-13T18:19:25.425Z,7.79
2023-01-13T18:22:12.568Z,7.77
2023-01-13T18:24:58.981Z,7.78
2023-01-13T18:27:32.355Z,7.77
2023-01-13T18:30:01.769Z,7.78
2023-01-13T18:32:33.119Z,7.77
2023-01-13T18:35:06.493Z,7.76
2023-01-13T18:37:38.610Z,7.75
2023-01-13T18:40:09.639Z,7.78
2023-01-13T18:42:54.858Z,7.77
2023-01-13T18:45:31.555Z,7.75
2023-01-13T18:48:02.728Z,7.77
2023-01-13T18:50:31.160Z,7.79
2023-01-13T18:52:58.817Z,7.81
2023-01-13T18:55:28.854Z,7.81
2023-01-13T18:57:57.509Z,7.83
2023-01-13T19:00:27.356Z,7.84
2023-01-13T19:05:36.331Z,7.85
2023-01-13T19:08:04.672Z,7.87
2023-01-13T19:10:32.774Z,7.86
2023-01-13T19:13:01.872Z,7.85
2023-01-13T19:15:30.912Z,7.86
2023-01-13T19:17:58.898Z,7.85
2023-01-13T19:20:26.585Z,7.87
2023-01-13T19:22:54.613Z,7.88
2023-01-13T19:25:22.996Z,7.88
2023-01-13T19:27:50.759Z,7.88
2023-01-13T19:30:19.027Z,7.86
2023-01-13T19:32:46.796Z,7.86
2023-01-13T19:35:17.712Z,7.86
2023-01-13T19:37:45.787Z,7.87
2023-01-13T19:40:13.973Z,7.88
2023-01-13T19:43:03.195Z,7.86
2023-01-13T19:45:32.237Z,7.85
2023-01-13T19:48:01.946Z,7.84
2023-01-13T19:50:29.709Z,7.84
2023-01-13T19:52:57.784Z,7.85
2023-01-13T19:55:25.537Z,7.84
2023-01-13T19:57:53.676Z,7.83
2023-01-13T20:00:22.200Z,7.82
2023-01-13T20:02:52.123Z,7.81
2023-01-13T20:05:22.707Z,7.81
2023-01-13T20:07:51.520Z,7.78
2023-01-13T20:10:21.234Z,7.76
2023-01-13T20:12:48.986Z,7.78
2023-01-13T20:15:16.878Z,7.77
2023-01-13T20:17:44.576Z,7.75
2023-01-13T20:20:13.722Z,7.74
2023-01-13T20:22:41.742Z,7.72
2023-01-13T20:25:09.753Z,7.71
2023-01-13T20:27:37.500Z,7.70
2023-01-13T20:30:06.536Z,7.70
2023-01-13T20:32:34.185Z,7.68
2023-01-13T20:35:02.046Z,7.64
2023-01-13T20:37:30.011Z,7.62
2023-01-13T20:39:58.247Z,7.61
2023-01-13T20:42:29.334Z,7.59
2023-01-13T20:44:59.356Z,7.57
2023-01-13T20:47:28.454Z,7.55
2023-01-13T20:49:56.675Z,7.55
2023-01-13T20:52:24.990Z,7.53
2023-01-13T20:54:52.692Z,7.54
2023-01-13T20:57:20.431Z,7.53
2023-01-13T20:59:48.378Z,7.51
2023-01-13T21:02:16.973Z,7.49
2023-01-13T21:04:45.131Z,7.46
2023-01-13T21:07:12.830Z,7.46
2023-01-13T21:09:40.574Z,7.45
2023-01-13T21:12:32.179Z,7.43
2023-01-13T21:15:18.211Z,7.41
2023-01-13T21:18:06.438Z,7.40
2023-01-13T21:20:35.688Z,7.37
2023-01-13T21:23:05.317Z,7.38
2023-01-13T21:25:35.523Z,7.36
2023-01-13T21:28:05.655Z,7.34
2023-01-13T21:30:38.430Z,7.34
2023-01-13T21:33:06.554Z,7.32
2023-01-13T21:35:38.190Z,7.30
2023-01-13T21:38:05.909Z,7.30
2023-01-13T21:40:33.617Z,7.30
2023-01-13T21:43:19.795Z,7.29
2023-01-13T21:46:06.963Z,7.28
2023-01-13T21:48:34.982Z,7.27
2023-01-13T21:51:02.736Z,7.24
2023-01-13T21:53:30.424Z,7.22
2023-01-13T21:55:58.161Z,7.20
2023-01-13T21:58:25.829Z,7.18
2023-01-13T22:00:54.288Z,7.17
2023-01-13T22:03:22.105Z,7.14
2023-01-13T22:05:54.936Z,7.09
2023-01-13T22:08:22.815Z,7.03
2023-01-13T22:11:00.454Z,6.98
2023-01-13T22:13:48.145Z,6.93
2023-01-13T22:16:16.546Z,6.86
2023-01-13T22:18:44.385Z,6.80
2023-01-13T22:21:12.165Z,6.74
2023-01-13T22:23:39.859Z,6.70
2023-01-13T22:26:08.195Z,6.65
2023-01-13T22:28:43.306Z,6.62
2023-01-13T22:31:17.065Z,6.59
2023-01-13T22:33:47.118Z,6.59
2023-01-13T22:36:15.696Z,6.55
2023-01-13T22:38:44.279Z,6.51
2023-01-13T22:41:11.956Z,6.47
2023-01-13T22:43:39.940Z,6.45
2023-01-13T22:46:11.143Z,6.42
2023-01-13T22:48:40.143Z,6.39
2023-01-13T22:51:10.937Z,6.35
2023-01-13T22:53:39.162Z,6.32
2023-01-13T22:56:08.318Z,6.28
2023-01-13T22:58:36.030Z,6.28
2023-01-13T23:01:09.103Z,6.28
2023-01-13T23:03:37.269Z,6.26
2023-01-13T23:06:06.489Z,6.26
2023-01-13T23:08:35.578Z,6.26
2023-01-13T23:11:11.768Z,6.27
2023-01-13T23:13:42.325Z,6.27
2023-01-13T23:16:19.496Z,6.26
2023-01-13T23:18:48.688Z,6.26
2023-01-13T23:21:22.772Z,6.25
2023-01-13T23:23:50.843Z,6.25
2023-01-13T23:26:19.672Z,6.25
2023-01-13T23:28:48.113Z,6.26
2023-01-13T23:31:22.433Z,6.24
2023-01-13T23:33:50.176Z,6.22
2023-01-13T23:36:21.539Z,6.22
2023-01-13T23:38:49.897Z,6.22
2023-01-13T23:41:23.246Z,6.22
2023-01-13T23:43:56.281Z,6.19
2023-01-13T23:46:25.318Z,6.19
2023-01-13T23:48:55.327Z,6.19
2023-01-13T23:51:26.146Z,6.19
2023-01-13T23:53:54.195Z,6.19
2023-01-13T23:56:25.102Z,6.18
2023-01-13T23:58:54.121Z,6.17
